createdAt,value
2018-10-19T00:02:15.753Z,37.33
2018-10-19T00:04:43.936Z,35.03
2018-10-19T00:07:12.249Z,36.77
2018-10-19T00:09:40.634Z,39.17
2018-10-19T00:12:09.310Z,40.17
2018-10-19T00:14:37.766Z,42.80
2018-10-19T00:17:06.413Z,38.73
2018-10-19T00:19:34.774Z,41.87
2018-10-19T00:22:02.865Z,39.67
2018-10-19T00:24:31.375Z,36.07
2018-10-19T00:26:59.982Z,35.83
2018-10-19T00:29:28.182Z,34.00
2018-10-19T00:31:56.430Z,34.27
2018-10-19T00:34:24.924Z,33.97
2018-10-19T00:36:53.494Z,33.40
2018-10-19T00:39:21.738Z,37.00
2018-10-19T00:41:50.064Z,40.27
2018-10-19T00:44:18.519Z,38.37
2018-10-19T00:46:46.815Z,36.83
2018-10-19T00:49:15.231Z,36.43
2018-10-19T00:51:43.691Z,44.00
2018-10-19T00:54:12.278Z,38.00
2018-10-19T00:56:40.485Z,36.43
2018-10-19T00:59:08.602Z,38.77
2018-10-19T01:01:37.148Z,39.00
2018-10-19T01:04:06.089Z,36.10
2018-10-19T01:06:34.237Z,35.03
2018-10-19T01:09:02.891Z,37.00
2018-10-19T01:11:31.007Z,34.67
2018-10-19T01:13:59.236Z,36.23
2018-10-19T01:16:27.372Z,36.33
2018-10-19T01:18:55.550Z,37.43
2018-10-19T01:21:24.077Z,38.60
2018-10-19T01:23:52.472Z,42.23
2018-10-19T01:26:21.140Z,41.63
2018-10-19T01:28:49.499Z,41.33
2018-10-19T01:31:17.702Z,45.53
2018-10-19T01:33:46.163Z,41.87
2018-10-19T01:36:14.233Z,42.97
2018-10-19T01:38:42.297Z,39.73
2018-10-19T01:41:10.333Z,42.73
2018-10-19T01:43:38.381Z,40.57
2018-10-19T01:46:06.554Z,37.33
2018-10-19T01:48:34.715Z,39.20
2018-10-19T01:51:02.814Z,39.13
2018-10-19T01:53:31.062Z,40.07
2018-10-19T01:55:59.183Z,44.57
2018-10-19T01:58:27.327Z,43.73
2018-10-19T02:00:55.418Z,42.70
2018-10-19T02:03:23.512Z,44.20
2018-10-19T02:05:51.757Z,45.40
2018-10-19T02:08:20.111Z,48.53
2018-10-19T02:10:48.307Z,46.60
2018-10-19T02:13:16.898Z,50.63
2018-10-19T02:15:45.171Z,42.40
2018-10-19T02:18:13.507Z,40.20
2018-10-19T02:20:41.662Z,43.17
2018-10-19T02:23:09.818Z,43.10
2018-10-19T02:25:38.111Z,39.87
2018-10-19T02:28:06.371Z,44.23
2018-10-19T02:30:34.610Z,46.13
2018-10-19T02:33:02.816Z,44.10
2018-10-19T02:35:31.074Z,42.87
2018-10-19T02:37:59.220Z,41.43
2018-10-19T02:40:27.497Z,39.93
2018-10-19T02:42:55.544Z,38.37
2018-10-19T02:45:23.650Z,40.63
2018-10-19T02:47:51.841Z,39.20
2018-10-19T02:50:19.992Z,50.33
2018-10-19T02:52:48.068Z,43.40
2018-10-19T02:55:16.147Z,42.33
2018-10-19T02:57:44.517Z,41.57
2018-10-19T03:00:12.599Z,43.90
2018-10-19T03:02:41.115Z,47.37
2018-10-19T03:05:09.624Z,48.40
2018-10-19T03:07:37.811Z,50.40
2018-10-19T03:10:06.610Z,42.00
2018-10-19T03:12:34.753Z,41.93
2018-10-19T03:15:03.195Z,40.67
2018-10-19T03:17:31.889Z,41.77
2018-10-19T03:20:00.041Z,43.20
2018-10-19T03:22:28.266Z,44.27
2018-10-19T03:24:57.476Z,43.80
2018-10-19T03:27:25.564Z,43.67
2018-10-19T03:29:53.623Z,45.33
2018-10-19T03:32:21.890Z,44.67
2018-10-19T03:34:50.100Z,43.63
2018-10-19T03:37:18.585Z,43.97
2018-10-19T03:39:46.757Z,48.13
2018-10-19T03:42:14.912Z,51.97
2018-10-19T03:44:42.974Z,51.43
2018-10-19T03:47:11.221Z,45.93
2018-10-19T03:49:39.530Z,45.77
2018-10-19T03:52:07.742Z,43.23
2018-10-19T03:54:36.156Z,46.53
2018-10-19T03:57:04.996Z,44.47
2018-10-19T03:59:33.467Z,41.80
2018-10-19T04:02:02.617Z,45.63
2018-10-19T04:04:30.806Z,48.83
2018-10-19T04:06:59.006Z,49.83
2018-10-19T04:09:27.205Z,50.33
2018-10-19T04:11:55.641Z,47.40
2018-10-19T04:14:55.083Z,47.43
2018-10-19T04:17:23.278Z,45.27
2018-10-19T04:19:51.601Z,47.10
2018-10-19T04:22:20.370Z,46.57
2018-10-19T04:24:49.671Z,48.47
2018-10-19T04:27:18.380Z,47.20
2018-10-19T04:29:46.795Z,48.83
2018-10-19T04:32:15.107Z,46.40
2018-10-19T04:34:43.243Z,44.67
2018-10-19T04:37:11.448Z,46.13
2018-10-19T04:39:39.616Z,44.53
2018-10-19T04:42:08.028Z,46.50
2018-10-19T04:44:36.126Z,46.33
2018-10-19T04:47:04.896Z,50.40
2018-10-19T04:49:33.178Z,54.27
2018-10-19T04:52:01.577Z,52.80
2018-10-19T04:54:29.989Z,48.70
2018-10-19T04:56:58.485Z,48.33
2018-10-19T04:59:27.047Z,48.03
2018-10-19T05:01:55.661Z,46.53
2018-10-19T05:04:24.121Z,48.27
2018-10-19T05:06:52.529Z,59.57
2018-10-19T05:09:20.611Z,54.67
2018-10-19T05:11:48.790Z,58.07
2018-10-19T05:14:16.970Z,51.47
2018-10-19T05:16:45.306Z,51.33
2018-10-19T05:19:13.938Z,48.77
2018-10-19T05:21:42.315Z,46.70
2018-10-19T05:24:10.407Z,49.97
2018-10-19T05:26:38.607Z,51.10
2018-10-19T05:29:06.879Z,53.77
2018-10-19T05:31:35.365Z,53.63
2018-10-19T05:34:03.704Z,55.37
2018-10-19T05:36:31.980Z,52.57
2018-10-19T05:39:02.556Z,51.30
2018-10-19T05:41:30.807Z,50.80
2018-10-19T05:43:59.138Z,51.57
2018-10-19T05:46:27.592Z,60.00
2018-10-19T05:48:55.746Z,61.50
2018-10-19T05:51:24.046Z,67.77
2018-10-19T05:53:52.088Z,70.90
2018-10-19T05:56:20.421Z,74.60
2018-10-19T05:58:48.689Z,73.43
2018-10-19T06:01:17.032Z,74.13
2018-10-19T06:03:45.319Z,73.73
2018-10-19T06:06:13.470Z,74.50
2018-10-19T06:08:41.687Z,70.93
2018-10-19T06:11:10.152Z,67.30
2018-10-19T06:13:38.681Z,71.37
2018-10-19T06:16:06.890Z,75.10
2018-10-19T06:18:35.114Z,67.83
2018-10-19T06:21:03.451Z,64.13
2018-10-19T06:23:31.711Z,64.10
2018-10-19T06:25:59.948Z,64.83
2018-10-19T06:28:28.257Z,69.37
2018-10-19T06:30:56.531Z,69.47
2018-10-19T06:33:24.737Z,67.93
2018-10-19T06:35:53.564Z,68.30
2018-10-19T06:38:21.754Z,66.10
2018-10-19T06:40:50.068Z,65.13
2018-10-19T06:43:18.499Z,66.33
2018-10-19T06:45:46.756Z,62.07
2018-10-19T06:48:14.911Z,54.90
2018-10-19T06:50:43.139Z,51.03
2018-10-19T06:53:11.524Z,48.90
2018-10-19T06:55:39.848Z,45.10
2018-10-19T06:58:07.948Z,43.13
2018-10-19T07:00:36.360Z,43.27
2018-10-19T07:03:05.856Z,43.33
2018-10-19T07:05:34.012Z,48.07
2018-10-19T07:08:02.420Z,41.20
2018-10-19T07:10:30.685Z,43.53
2018-10-19T07:12:59.301Z,44.53
2018-10-19T07:15:28.614Z,39.20
2018-10-19T07:17:56.805Z,39.40
2018-10-19T07:20:24.991Z,37.30
2018-10-19T07:22:53.193Z,36.73
2018-10-19T07:25:21.406Z,36.03
2018-10-19T07:27:49.529Z,36.90
2018-10-19T07:30:17.635Z,37.53
2018-10-19T07:32:46.298Z,35.60
2018-10-19T07:35:14.630Z,34.93
2018-10-19T07:37:42.788Z,36.97
2018-10-19T07:40:11.217Z,38.00
2018-10-19T07:42:39.364Z,38.00
2018-10-19T07:45:07.681Z,38.83
2018-10-19T07:47:36.139Z,36.23
2018-10-19T07:50:05.970Z,36.47
2018-10-19T07:52:34.160Z,37.10
2018-10-19T07:55:02.481Z,37.00
2018-10-19T07:57:40.809Z,38.73
2018-10-19T08:00:09.940Z,37.30
2018-10-19T08:02:38.105Z,39.07
2018-10-19T08:05:07.765Z,38.07
2018-10-19T08:07:36.071Z,36.77
2018-10-19T08:10:06.019Z,36.40
2018-10-19T08:12:34.281Z,37.03
2018-10-19T08:15:02.736Z,35.30
2018-10-19T08:17:31.122Z,36.63
2018-10-19T08:19:59.405Z,37.87
2018-10-19T08:22:27.742Z,37.40
2018-10-19T08:24:56.339Z,38.27
2018-10-19T08:27:24.589Z,38.63
2018-10-19T08:29:52.890Z,42.00
2018-10-19T08:32:21.048Z,40.63
2018-10-19T08:34:49.362Z,41.27
2018-10-19T08:37:17.640Z,40.60
2018-10-19T08:39:46.363Z,41.00
2018-10-19T08:42:14.533Z,41.20
2018-10-19T08:44:42.956Z,42.27
2018-10-19T08:47:11.206Z,42.83
2018-10-19T08:49:39.488Z,43.20
2018-10-19T08:52:07.952Z,43.17
2018-10-19T08:54:36.389Z,41.80
2018-10-19T08:57:05.240Z,42.40
2018-10-19T08:59:33.984Z,42.90
2018-10-19T09:02:02.223Z,42.07
2018-10-19T09:04:30.509Z,42.97
2018-10-19T09:06:58.981Z,43.03
2018-10-19T09:09:27.071Z,41.43
2018-10-19T09:11:55.297Z,43.27
2018-10-19T09:14:40.681Z,42.47
2018-10-19T09:17:09.247Z,43.83
2018-10-19T09:19:37.369Z,43.97
2018-10-19T09:22:09.467Z,42.47
2018-10-19T09:24:37.562Z,43.13
2018-10-19T09:27:09.706Z,43.37
2018-10-19T09:29:37.952Z,42.13
2018-10-19T09:32:06.570Z,42.93
2018-10-19T09:34:35.891Z,42.73
2018-10-19T09:37:05.186Z,41.90
2018-10-19T09:39:33.777Z,42.80
2018-10-19T09:42:01.956Z,44.80
2018-10-19T09:44:31.247Z,42.60
2018-10-19T09:46:59.437Z,44.73
2018-10-19T09:49:27.685Z,42.47
2018-10-19T09:51:55.932Z,43.10
2018-10-19T09:54:24.528Z,47.43
2018-10-19T09:56:52.887Z,44.70
2018-10-19T09:59:24.702Z,45.00
2018-10-19T10:01:53.278Z,46.00
2018-10-19T10:04:21.546Z,44.83
2018-10-19T10:06:50.010Z,44.83
2018-10-19T10:09:18.382Z,47.13
2018-10-19T10:11:46.713Z,43.50
2018-10-19T10:14:15.942Z,44.97
2018-10-19T10:16:44.290Z,43.10
2018-10-19T10:19:12.570Z,45.17
2018-10-19T10:21:40.742Z,43.67
2018-10-19T10:24:08.922Z,46.53
2018-10-19T10:26:37.056Z,43.47
2018-10-19T10:29:05.930Z,45.50
2018-10-19T10:31:34.384Z,46.70
2018-10-19T10:34:02.593Z,45.93
2018-10-19T10:36:31.067Z,45.83
2018-10-19T10:38:59.280Z,47.30
2018-10-19T10:41:27.548Z,45.63
2018-10-19T10:43:55.797Z,46.23
2018-10-19T10:46:24.084Z,45.13
2018-10-19T10:48:52.371Z,46.30
2018-10-19T10:51:20.695Z,45.97
2018-10-19T10:53:48.844Z,45.97
2018-10-19T10:56:17.152Z,47.80
2018-10-19T10:58:45.381Z,48.17
2018-10-19T11:01:14.126Z,49.17
2018-10-19T11:03:42.227Z,48.67
2018-10-19T11:06:10.383Z,48.77
2018-10-19T11:08:38.906Z,50.93
2018-10-19T11:11:09.948Z,48.90
2018-10-19T11:13:39.038Z,49.10
2018-10-19T11:16:08.223Z,50.23
2018-10-19T11:18:36.409Z,54.10
2018-10-19T11:21:05.038Z,49.80
2018-10-19T11:23:33.704Z,49.37
2018-10-19T11:26:02.028Z,51.33
2018-10-19T11:28:31.030Z,48.47
2018-10-19T11:30:59.796Z,49.47
2018-10-19T11:33:28.354Z,47.77
2018-10-19T11:35:56.707Z,48.50
2018-10-19T11:38:25.130Z,50.03
2018-10-19T11:40:53.490Z,47.87
2018-10-19T11:43:22.175Z,54.07
2018-10-19T11:45:50.432Z,49.33
2018-10-19T11:48:18.774Z,48.87
2018-10-19T11:50:47.155Z,47.27
2018-10-19T11:53:15.476Z,48.67
2018-10-19T11:55:43.872Z,47.90
2018-10-19T11:58:12.193Z,48.07
2018-10-19T12:00:40.611Z,47.77
2018-10-19T12:03:09.136Z,48.10
2018-10-19T12:05:37.530Z,47.07
2018-10-19T12:08:05.978Z,48.30
2018-10-19T12:10:34.418Z,48.23
2018-10-19T12:13:02.551Z,46.63
2018-10-19T12:15:31.521Z,49.43
2018-10-19T12:17:59.617Z,47.10
2018-10-19T12:20:28.041Z,47.73
2018-10-19T12:22:56.479Z,47.20
2018-10-19T12:25:25.141Z,57.00
2018-10-19T12:27:53.913Z,46.70
2018-10-19T12:30:22.269Z,46.97
2018-10-19T12:32:50.512Z,46.87
2018-10-19T12:35:18.867Z,47.07
2018-10-19T12:37:47.078Z,46.20
2018-10-19T12:40:16.018Z,47.57
2018-10-19T12:42:45.181Z,47.50
2018-10-19T12:46:35.479Z,46.87
2018-10-19T12:49:03.997Z,48.13
2018-10-19T12:51:32.302Z,45.17
2018-10-19T12:54:00.468Z,45.70
2018-10-19T12:56:28.709Z,44.47
2018-10-19T12:58:57.036Z,45.50
2018-10-19T13:01:26.627Z,46.33
2018-10-19T13:03:55.028Z,46.87
2018-10-19T13:06:23.389Z,45.97
2018-10-19T13:08:52.029Z,45.27
2018-10-19T13:11:20.510Z,43.13
2018-10-19T13:13:49.150Z,45.17
2018-10-19T13:16:17.855Z,47.57
2018-10-19T13:18:46.108Z,46.57
2018-10-19T13:21:14.592Z,44.80
2018-10-19T13:23:42.835Z,44.33
2018-10-19T13:26:11.988Z,43.23
2018-10-19T13:28:40.141Z,42.87
2018-10-19T13:31:08.446Z,45.83
2018-10-19T13:33:36.933Z,43.93
2018-10-19T13:36:06.007Z,44.00
2018-10-19T13:38:34.241Z,43.97
2018-10-19T13:41:02.418Z,42.93
2018-10-19T13:43:30.762Z,46.47
2018-10-19T13:45:58.976Z,43.53
2018-10-19T13:48:27.348Z,43.40
2018-10-19T13:50:55.623Z,45.03
2018-10-19T13:53:23.974Z,42.67
2018-10-19T13:55:52.493Z,42.13
2018-10-19T13:58:20.904Z,43.07
2018-10-19T14:00:49.111Z,41.67
2018-10-19T14:03:17.979Z,42.70
2018-10-19T14:05:46.862Z,43.73
2018-10-19T14:08:15.339Z,41.80
2018-10-19T14:10:43.726Z,41.23
2018-10-19T14:13:12.025Z,42.30
2018-10-19T14:15:40.224Z,43.70
2018-10-19T14:18:08.606Z,43.60
2018-10-19T14:20:36.834Z,43.57
2018-10-19T14:23:06.176Z,40.80
2018-10-19T14:25:34.360Z,41.70
2018-10-19T14:28:02.615Z,42.20
2018-10-19T14:30:31.387Z,45.13
2018-10-19T14:32:59.584Z,44.03
2018-10-19T14:35:27.610Z,44.50
2018-10-19T14:37:56.082Z,43.47
2018-10-19T14:40:24.246Z,44.03
2018-10-19T14:42:53.101Z,41.37
2018-10-19T14:45:21.300Z,44.70
2018-10-19T14:47:49.542Z,41.70
2018-10-19T14:50:18.328Z,43.57
2018-10-19T14:52:46.499Z,45.30
2018-10-19T14:55:16.228Z,42.57
2018-10-19T14:57:44.409Z,44.40
2018-10-19T15:00:13.964Z,44.40
2018-10-19T15:02:42.333Z,44.03
2018-10-19T15:05:12.333Z,42.97
2018-10-19T15:07:40.400Z,43.60
2018-10-19T15:10:12.776Z,42.93
2018-10-19T15:12:41.123Z,43.03
2018-10-19T15:15:12.453Z,42.53
2018-10-19T15:17:40.614Z,44.17
2018-10-19T15:20:09.115Z,41.47
2018-10-19T15:22:37.487Z,41.97
2018-10-19T15:25:07.096Z,42.40
2018-10-19T15:27:35.984Z,43.60
2018-10-19T15:30:05.168Z,42.57
2018-10-19T15:32:33.557Z,42.60
2018-10-19T15:35:01.716Z,43.73
2018-10-19T15:37:29.744Z,41.77
2018-10-19T15:39:58.094Z,42.63
2018-10-19T15:42:26.149Z,42.87
2018-10-19T15:44:54.562Z,41.67
2018-10-19T15:47:26.340Z,42.43
2018-10-19T15:49:56.131Z,41.17
2018-10-19T15:52:24.370Z,43.23
2018-10-19T15:54:53.600Z,41.83
2018-10-19T15:57:22.049Z,41.90
2018-10-19T15:59:50.296Z,40.83
2018-10-19T16:02:18.871Z,41.37
2018-10-19T16:04:48.181Z,39.93
2018-10-19T16:07:16.711Z,41.50
2018-10-19T16:09:45.199Z,39.90
2018-10-19T16:12:13.354Z,41.43
2018-10-19T16:14:41.450Z,41.17
2018-10-19T16:17:09.673Z,40.27
2018-10-19T16:19:37.819Z,42.37
2018-10-19T16:22:06.372Z,42.70
2018-10-19T16:24:34.499Z,44.40
2018-10-19T16:27:02.757Z,43.77
2018-10-19T16:29:30.835Z,44.07
2018-10-19T16:31:58.847Z,47.37
2018-10-19T16:34:27.230Z,46.87
2018-10-19T16:36:55.486Z,47.10
2018-10-19T16:39:23.602Z,45.37
2018-10-19T16:41:51.753Z,46.43
2018-10-19T16:44:20.042Z,46.73
2018-10-19T16:46:49.330Z,47.43
2018-10-19T16:49:17.401Z,48.53
2018-10-19T16:51:45.620Z,47.57
2018-10-19T16:54:13.700Z,45.90
2018-10-19T16:56:41.701Z,47.17
2018-10-19T16:59:09.969Z,46.50
2018-10-19T17:01:38.468Z,48.47
2018-10-19T17:04:06.924Z,47.70
2018-10-19T17:06:35.176Z,48.70
2018-10-19T17:09:07.429Z,49.83
2018-10-19T17:11:35.455Z,50.40
2018-10-19T17:14:03.922Z,49.83
2018-10-19T17:16:32.070Z,48.63
2018-10-19T17:19:00.182Z,48.60
2018-10-19T17:21:28.642Z,48.60
2018-10-19T17:23:57.461Z,47.93
2018-10-19T17:26:25.531Z,50.83
2018-10-19T17:28:53.930Z,50.93
2018-10-19T17:31:22.243Z,50.07
2018-10-19T17:33:50.548Z,52.13
2018-10-19T17:36:18.599Z,50.97
2018-10-19T17:38:46.974Z,50.77
2018-10-19T17:41:15.259Z,51.63
2018-10-19T17:43:43.600Z,52.80
2018-10-19T17:46:11.692Z,54.40
2018-10-19T17:48:40.050Z,53.17
2018-10-19T17:51:08.335Z,55.13
2018-10-19T17:53:36.494Z,55.20
2018-10-19T17:56:05.211Z,52.17
2018-10-19T17:58:33.695Z,54.23
2018-10-19T18:01:01.871Z,57.17
2018-10-19T18:03:30.649Z,56.70
2018-10-19T18:05:59.006Z,53.87
2018-10-19T18:08:27.211Z,56.40
2018-10-19T18:10:55.562Z,58.07
2018-10-19T18:13:24.476Z,56.80
2018-10-19T18:15:52.738Z,53.33
2018-10-19T18:18:20.999Z,56.43
2018-10-19T18:20:49.216Z,54.53
2018-10-19T18:23:17.805Z,58.00
2018-10-19T18:25:46.456Z,54.60
2018-10-19T18:28:14.604Z,53.93
2018-10-19T18:30:42.932Z,55.80
2018-10-19T18:33:10.990Z,55.50
2018-10-19T18:35:39.366Z,58.47
2018-10-19T18:38:07.475Z,56.27
2018-10-19T18:40:35.572Z,58.60
2018-10-19T18:43:04.119Z,53.83
2018-10-19T18:45:32.335Z,55.73
2018-10-19T18:48:00.993Z,55.53
2018-10-19T18:50:29.318Z,56.73
2018-10-19T18:52:57.477Z,56.57
2018-10-19T18:55:25.785Z,59.73
2018-10-19T18:57:54.444Z,59.00
2018-10-19T19:00:22.579Z,58.27
2018-10-19T19:02:50.751Z,56.60
2018-10-19T19:05:18.875Z,58.33
2018-10-19T19:07:47.202Z,59.43
2018-10-19T19:10:15.355Z,60.50
2018-10-19T19:12:43.403Z,59.17
2018-10-19T19:15:11.854Z,54.57
2018-10-19T19:17:40.135Z,56.73
2018-10-19T19:20:14.512Z,58.77
2018-10-19T19:22:43.262Z,59.07
2018-10-19T19:25:17.060Z,57.87
2018-10-19T19:27:45.276Z,60.57
2018-10-19T19:30:13.549Z,61.67
2018-10-19T19:32:47.333Z,60.93
2018-10-19T19:35:15.691Z,63.67
2018-10-19T19:37:44.497Z,64.43
2018-10-19T19:40:13.533Z,66.47
2018-10-19T19:42:46.385Z,62.83
2018-10-19T19:45:15.139Z,63.50
2018-10-19T19:47:49.072Z,60.73
2018-10-19T19:50:17.320Z,59.00
2018-10-19T19:52:45.454Z,61.97
2018-10-19T19:55:13.772Z,58.63
2018-10-19T19:57:42.014Z,58.30
2018-10-19T20:00:10.501Z,61.03
2018-10-19T20:02:39.092Z,58.10
2018-10-19T20:05:07.789Z,57.07
2018-10-19T20:07:36.933Z,59.77
2018-10-19T20:10:06.723Z,57.57
2018-10-19T20:12:35.377Z,60.30
2018-10-19T20:15:05.006Z,59.00
2018-10-19T20:17:33.275Z,63.67
2018-10-19T20:20:01.824Z,66.30
2018-10-19T20:22:30.225Z,63.60
2018-10-19T20:24:58.477Z,64.30
2018-10-19T20:27:26.775Z,63.43
2018-10-19T20:29:55.432Z,64.43
2018-10-19T20:32:23.971Z,63.87
2018-10-19T20:34:52.256Z,68.60
2018-10-19T20:37:21.012Z,66.77
2018-10-19T20:39:49.415Z,64.63
2018-10-19T20:42:17.719Z,59.83
2018-10-19T20:44:45.901Z,60.73
2018-10-19T20:47:14.372Z,61.27
2018-10-19T20:49:43.004Z,66.33
2018-10-19T20:52:11.478Z,68.07
2018-10-19T20:54:40.553Z,69.33
2018-10-19T20:57:08.565Z,71.73
2018-10-19T20:59:36.955Z,72.10
2018-10-19T21:02:05.430Z,65.07
2018-10-19T21:04:33.928Z,70.30
2018-10-19T21:07:03.338Z,80.67
2018-10-19T21:09:31.550Z,77.97
2018-10-19T21:12:00.976Z,76.13
2018-10-19T21:14:29.280Z,77.17
2018-10-19T21:16:57.512Z,74.30
2018-10-19T21:19:26.591Z,78.27
2018-10-19T21:21:55.592Z,76.50
2018-10-19T21:24:24.287Z,66.97
2018-10-19T21:26:52.809Z,70.67
2018-10-19T21:29:21.000Z,71.07
2018-10-19T21:31:49.803Z,66.33
2018-10-19T21:34:17.936Z,65.30
2018-10-19T21:36:46.095Z,66.03
2018-10-19T21:39:14.268Z,67.43
2018-10-19T21:41:42.636Z,67.23
2018-10-19T21:44:10.983Z,75.13
2018-10-19T21:46:39.375Z,79.43
2018-10-19T21:49:08.060Z,72.17
2018-10-19T21:51:36.406Z,73.70
2018-10-19T21:54:05.226Z,75.27
2018-10-19T21:56:33.537Z,73.50
2018-10-19T21:59:02.125Z,72.70
2018-10-19T22:01:30.389Z,73.97
2018-10-19T22:03:58.496Z,71.53
2018-10-19T22:06:26.970Z,69.73
2018-10-19T22:08:55.191Z,72.97
2018-10-19T22:11:23.501Z,74.90
2018-10-19T22:13:51.706Z,74.03
2018-10-19T22:16:19.825Z,79.57
2018-10-19T22:18:47.926Z,78.40
2018-10-19T22:21:16.253Z,77.87
2018-10-19T22:23:44.450Z,78.70
2018-10-19T22:26:12.809Z,74.77
2018-10-19T22:28:40.896Z,74.43
2018-10-19T22:31:09.204Z,74.60
2018-10-19T22:33:37.493Z,77.07
2018-10-19T22:36:05.951Z,75.37
2018-10-19T22:38:35.458Z,73.93
2018-10-19T22:41:04.567Z,81.30
2018-10-19T22:43:32.700Z,78.63
2018-10-19T22:46:00.804Z,71.60
2018-10-19T22:48:29.408Z,74.40
2018-10-19T22:50:57.605Z,72.00
2018-10-19T22:53:25.719Z,70.60
2018-10-19T22:55:53.791Z,70.23
2018-10-19T22:58:21.792Z,69.20
2018-10-19T23:00:49.971Z,70.60
2018-10-19T23:03:18.009Z,83.67
2018-10-19T23:05:46.080Z,77.23
2018-10-19T23:08:14.240Z,74.63
2018-10-19T23:10:42.572Z,71.80
2018-10-19T23:13:10.751Z,71.57
2018-10-19T23:15:39.278Z,72.27
2018-10-19T23:18:07.698Z,70.77
2018-10-19T23:20:35.733Z,74.27
2018-10-19T23:23:04.223Z,69.50
2018-10-19T23:25:32.247Z,66.43
2018-10-19T23:28:00.349Z,70.57
2018-10-19T23:30:28.436Z,64.40
2018-10-19T23:32:56.627Z,70.43
2018-10-19T23:35:24.651Z,79.23
2018-10-19T23:37:52.701Z,79.57
2018-10-19T23:40:20.738Z,77.67
2018-10-19T23:42:49.034Z,76.47
2018-10-19T23:45:17.186Z,70.47
2018-10-19T23:47:45.343Z,75.13
2018-10-19T23:50:13.715Z,70.63
2018-10-19T23:52:42.174Z,72.30
2018-10-19T23:55:10.464Z,81.80
2018-10-19T23:57:38.653Z,75.50
